Flight Track Log - Related Links

Times and Time Zones

All times are in EDT time to prevent confusion due to time zone crossing. See the USC105 flight status page for this flight to view local times or setup timezone preferences in your user account.

Time Position Orientation Groundspeed Altitude Reporting Facility
EDT Latitude Longitude Course Direction KTS MPH feet Rate Location/Type
Mon 11:12:36 PM 41.5628 -81.6903 342° North 140 161 1,900  Level Cleveland Center
Mon 11:13:30 PM 41.6000 -81.7050 344° North 150 173 2,600 835 Climbing Cleveland Center
Mon 11:14:31 PM 41.6142 -81.7469 294° West 123 142 3,500 893 Climbing Cleveland Center
Mon 11:15:31 PM 41.6264 -81.7914 290° West 130 150 4,400 887 Climbing Cleveland Center
Mon 11:16:26 PM 41.6364 -81.8333 288° West 132 152 5,200 881 Climbing Cleveland Center
Mon 11:17:20 PM 41.6525 -81.8753 297° West 130 150 6,000 417 Climbing Cleveland Center
Mon 11:18:21 PM 41.6706 -81.9258 296° West 161 185 6,000  Level Cleveland Center
Mon 11:19:22 PM 41.6908 -81.9789 297° West 163 188 6,000  Level Cleveland Center
Mon 11:20:22 PM 41.7089 -82.0378 292° West 178 205 6,000  Level Cleveland Center
Mon 11:21:23 PM 41.7350 -82.1053 297° West 185 213 6,000  Level Cleveland Center
Mon 11:22:23 PM 41.7572 -82.1669 296° West 187 215 6,000 -56 Level Cleveland Center
Mon 11:23:11 PM 41.7775 -82.2147 300° West 189 217 5,900 -83 Descending Cleveland Center
Mon 11:23:35 PM 41.7853 -82.2372 295° West 189 217 5,900  Level Cleveland Center
Mon 11:24:48 PM 41.8133 -82.3189 295° West 189 217 5,900  Level Cleveland Center
Mon 11:25:43 PM 41.8333 -82.3778 295° West 189 217 5,900  Level Cleveland Center
Mon 11:26:43 PM 41.8575 -82.4372 299° West 188 216 5,900  Level Cleveland Center
Mon 11:27:44 PM 41.8792 -82.5019 294° West 189 217 5,900  Level Cleveland Center
Mon 11:28:45 PM 41.8992 -82.5639 293° West 186 214 5,900  Level Cleveland Center
Mon 11:29:46 PM 41.9272 -82.6289 300° West 187 215 5,900  Level Cleveland Center
Mon 11:30:58 PM 41.9592 -82.6997 301° West 190 219 5,900  Level Cleveland Center
Mon 11:31:59 PM 41.9872 -82.7622 301° West 190 219 5,900  Level Cleveland Center
Mon 11:33:00 PM 42.0172 -82.8247 303° West 190 219 5,900  Level Cleveland Center
Mon 11:34:06 PM 42.0453 -82.8872 301° West 189 217 5,900  Level Cleveland Center
Mon 11:35:07 PM 42.0731 -82.9497 301° West 189 217 5,900  Level Cleveland Center
Mon 11:36:02 PM 42.0992 -83.0039 303° West 192 221 5,900  Level Cleveland Center
Mon 11:37:02 PM 42.1269 -83.0636 302° West 189 217 5,900 -198 Level Cleveland Center
Mon 11:38:03 PM 42.1547 -83.1264 301° West 192 221 5,500 -446 Descending Cleveland Center
Mon 11:39:03 PM 42.1867 -83.1922 303° West 200 230 5,000 -313 Descending Cleveland Center
Mon 11:39:58 PM 42.2106 -83.2464 301° West 184 212 4,900 -55 Descending Cleveland Center
Mon 11:40:53 PM 42.2322 -83.2950 301° West 168 193 4,900 -104 Level Cleveland Center
Mon 11:41:53 PM 42.2561 -83.3464 302° West 163 188 4,700 -898 Descending Cleveland Center
Mon 11:43:00 PM 42.2900 -83.4097 306° West 199 229 3,000 -1,140 Descending Cleveland Center
Mon 11:43:54 PM 42.2889 -83.4575 268° West 142 163 2,400 -887 Descending Cleveland Center
Mon 11:44:55 PM 42.2650 -83.4928 228° Southwest 118 136 1,300 -1,082 Descending Cleveland Center
Mon 11:46:00 PM 42.2333 -83.5167 297° West  Level FlightAware Approximate
Mon 11:53:00 PM 42.2393 -83.5310 297° West  Level Estimated
Mon 11:54:00 PM 42.2393 -83.5310 297° West  Level Estimated

Login

Don't have an account? Register now (free) for customized features, flight alerts, and more!